Time;durP1;ratioP1;P1;durP2;ratioP2;P2;SDS_P1;SDS_P2;PMS_P1;PMS_P2;Temp;Humidity;BMP_temperature;BMP_pressure;BME280_temperature;BME280_humidity;BME280_pressure;Samples;Min_cycle;Max_cycle;Signal;HPM_P1;HPM_P2
2022/06/28 00:00:27;;;;;;;;;;;26.10;68.10;;;;;;4987535;28;20059;-78
2022/06/28 00:02:53;;;;;;;;;;;26.00;68.10;;;;;;4988194;28;19928;-78
2022/06/28 00:05:19;;;;;;;;;;;26.00;68.00;;;;;;4988246;28;19933;-78
2022/06/28 00:07:44;;;;;;;;;;;26.00;68.20;;;;;;4988332;28;19922;-78
2022/06/28 00:10:11;;;;;;;;;;;25.90;68.20;;;;;;4972626;28;19922;-78
2022/06/28 00:12:38;;;;;;;;;;;25.90;68.30;;;;;;4989592;28;19929;-78
2022/06/28 00:17:49;;;;;;;;;;;25.90;68.30;;;;;;4987115;28;19923;-78
2022/06/28 00:20:15;;;;;;;;;;;25.90;68.30;;;;;;4986017;28;19929;-78
2022/06/28 00:22:41;;;;;;;;;;;25.80;68.30;;;;;;4986817;28;19975;-78
2022/06/28 00:25:07;;;;;;;;;;;25.80;68.30;;;;;;4985764;28;19969;-78
2022/06/28 00:27:33;;;;;;;;;;;25.80;68.60;;;;;;4986779;28;19922;-78
2022/06/28 00:29:59;;;;;;;;;;;25.80;68.60;;;;;;4969141;28;19976;-79
2022/06/28 00:32:24;;;;;;;;;;;25.70;68.90;;;;;;4985194;28;19979;-79
2022/06/28 00:34:50;;;;;;;;;;;25.70;68.50;;;;;;4985023;28;19949;-79
2022/06/28 00:37:16;;;;;;;;;;;25.70;68.70;;;;;;4969720;28;19925;-78
2022/06/28 00:39:42;;;;;;;;;;;25.70;68.90;;;;;;4985660;28;19929;-78
2022/06/28 00:42:08;;;;;;;;;;;25.60;68.80;;;;;;4984796;28;19922;-78
2022/06/28 00:44:34;;;;;;;;;;;25.60;68.80;;;;;;4983071;28;20843;-78
2022/06/28 00:47:00;;;;;;;;;;;25.60;68.90;;;;;;4967149;28;19922;-80
2022/06/28 00:49:26;;;;;;;;;;;25.60;69.00;;;;;;4970252;28;20031;-80
2022/06/28 00:51:52;;;;;;;;;;;25.60;69.50;;;;;;4985340;28;19922;-80
2022/06/28 00:54:18;;;;;;;;;;;25.50;69.40;;;;;;4987081;28;19929;-79
2022/06/28 00:56:44;;;;;;;;;;;25.50;70.10;;;;;;4987529;28;19922;-79
2022/06/28 00:59:10;;;;;;;;;;;25.50;69.40;;;;;;4972040;28;19922;-79
2022/06/28 01:01:36;;;;;;;;;;;25.40;69.50;;;;;;4985040;28;19918;-81
2022/06/28 01:04:01;;;;;;;;;;;25.40;69.90;;;;;;4971565;28;19921;-80
2022/06/28 01:06:27;;;;;;;;;;;25.40;70.20;;;;;;4973588;28;19929;-80
2022/06/28 01:08:53;;;;;;;;;;;25.40;70.30;;;;;;4988334;28;20277;-80
2022/06/28 01:11:23;;;;;;;;;;;25.40;70.80;;;;;;4986808;28;20377;-80
2022/06/28 01:13:54;;;;;;;;;;;25.30;71.40;;;;;;4985260;28;20396;-80
2022/06/28 01:16:22;;;;;;;;;;;25.30;72.20;;;;;;4968432;28;19917;-81
2022/06/28 01:18:51;;;;;;;;;;;25.30;72.30;;;;;;4985208;28;20024;-80
2022/06/28 01:21:37;;;;;;;;;;;25.30;72.20;;;;;;4973564;28;19922;-80
2022/06/28 01:24:04;;;;;;;;;;;25.20;71.60;;;;;;4967802;28;19926;-80
2022/06/28 01:26:37;;;;;;;;;;;25.20;70.80;;;;;;4983853;28;20329;-80
2022/06/28 01:29:03;;;;;;;;;;;25.20;70.50;;;;;;4968848;28;19972;-79
2022/06/28 01:31:42;;;;;;;;;;;25.20;70.30;;;;;;4973456;28;19921;-81
2022/06/28 01:34:09;;;;;;;;;;;25.30;70.20;;;;;;4982664;28;19922;-80
2022/06/28 01:36:35;;;;;;;;;;;25.30;70.40;;;;;;4984811;28;20459;-80
2022/06/28 01:39:03;;;;;;;;;;;25.40;70.60;;;;;;4972142;28;19929;-79
2022/06/28 01:41:33;;;;;;;;;;;25.40;70.40;;;;;;4982858;28;19922;-79
2022/06/28 01:44:06;;;;;;;;;;;25.40;71.20;;;;;;4967241;28;19933;-79
2022/06/28 01:46:35;;;;;;;;;;;25.40;70.90;;;;;;4982738;28;19965;-78
2022/06/28 01:49:07;;;;;;;;;;;25.40;71.20;;;;;;4985825;28;19926;-79
2022/06/28 01:51:35;;;;;;;;;;;25.40;71.00;;;;;;4966170;28;20303;-79
2022/06/28 01:54:01;;;;;;;;;;;25.40;70.70;;;;;;4969869;28;19976;-79
2022/06/28 01:56:33;;;;;;;;;;;25.30;70.30;;;;;;4972143;28;19922;-79
2022/06/28 01:59:06;;;;;;;;;;;25.30;71.10;;;;;;4969109;28;19921;-79
2022/06/28 02:01:45;;;;;;;;;;;25.30;70.80;;;;;;4984725;28;19918;-79
2022/06/28 02:04:21;;;;;;;;;;;25.30;71.00;;;;;;4987378;28;19946;-79
2022/06/28 02:06:53;;;;;;;;;;;25.30;71.30;;;;;;4967646;28;20336;-79
2022/06/28 02:09:20;;;;;;;;;;;25.20;70.80;;;;;;4987069;28;20361;-79
2022/06/28 02:11:48;;;;;;;;;;;25.20;70.80;;;;;;4967597;28;19923;-79
2022/06/28 02:14:17;;;;;;;;;;;25.20;71.80;;;;;;4967619;28;19975;-79
2022/06/28 02:16:44;;;;;;;;;;;25.20;72.00;;;;;;4965840;28;19921;-78
2022/06/28 02:19:11;;;;;;;;;;;25.30;71.40;;;;;;4986396;28;20287;-79
2022/06/28 02:21:38;;;;;;;;;;;25.30;71.40;;;;;;4966405;28;19921;-81
2022/06/28 02:24:05;;;;;;;;;;;25.40;70.90;;;;;;4956247;28;19985;-80
2022/06/28 02:26:32;;;;;;;;;;;25.50;70.60;;;;;;4986339;28;19929;-77
2022/06/28 02:29:01;;;;;;;;;;;25.50;70.20;;;;;;4957270;28;20265;-79
2022/06/28 02:31:27;;;;;;;;;;;25.50;70.00;;;;;;4967652;28;19918;-79
2022/06/28 02:33:53;;;;;;;;;;;25.60;69.80;;;;;;4967166;28;19945;-79
2022/06/28 02:41:49;;;;;;;;;;;25.80;69.60;;;;;;4986761;28;20288;-79
2022/06/28 02:44:16;;;;;;;;;;;25.90;69.40;;;;;;4965648;28;19930;-79
2022/06/28 02:46:42;;;;;;;;;;;26.00;69.40;;;;;;4985964;28;19968;-79
2022/06/28 02:49:08;;;;;;;;;;;26.10;69.00;;;;;;4973746;28;19937;-79
2022/06/28 02:51:33;;;;;;;;;;;26.20;68.60;;;;;;4989991;28;19930;-79
2022/06/28 02:53:59;;;;;;;;;;;26.20;68.30;;;;;;4991289;28;19922;-79
2022/06/28 02:56:25;;;;;;;;;;;26.30;68.10;;;;;;4989267;28;19922;-78
2022/06/28 02:58:51;;;;;;;;;;;26.30;68.10;;;;;;4988958;28;19918;-79
2022/06/28 03:01:17;;;;;;;;;;;26.40;67.90;;;;;;4973750;28;19960;-80
2022/06/28 03:03:43;;;;;;;;;;;26.40;67.70;;;;;;4974422;28;19925;-80
2022/06/28 03:06:11;;;;;;;;;;;26.50;67.50;;;;;;4971962;28;19929;-80
2022/06/28 03:08:38;;;;;;;;;;;26.50;67.30;;;;;;4955815;28;19929;-79
2022/06/28 03:11:05;;;;;;;;;;;26.40;67.50;;;;;;4985607;28;19922;-79
2022/06/28 03:13:30;;;;;;;;;;;26.30;67.50;;;;;;4989304;28;20060;-80
2022/06/28 03:15:56;;;;;;;;;;;26.30;67.60;;;;;;4989953;28;20289;-79
2022/06/28 03:18:23;;;;;;;;;;;26.20;67.50;;;;;;4986997;28;21187;-79
2022/06/28 03:20:48;;;;;;;;;;;26.20;67.60;;;;;;4988425;28;19929;-79
2022/06/28 03:23:15;;;;;;;;;;;26.20;67.60;;;;;;4986704;28;19926;-79
2022/06/28 03:25:43;;;;;;;;;;;26.10;67.90;;;;;;4969918;28;19925;-79
2022/06/28 03:28:09;;;;;;;;;;;26.10;68.00;;;;;;4990240;28;20258;-81
2022/06/28 03:30:36;;;;;;;;;;;26.20;68.00;;;;;;4985363;28;20018;-80
2022/06/28 03:33:02;;;;;;;;;;;26.20;68.10;;;;;;4955505;28;20001;-79
2022/06/28 03:35:32;;;;;;;;;;;26.20;67.90;;;;;;4990487;28;19921;-78
2022/06/28 03:37:58;;;;;;;;;;;26.20;67.70;;;;;;4988178;28;20610;-80
2022/06/28 03:40:44;;;;;;;;;;;26.10;68.10;;;;;;4986617;28;20016;-78
2022/06/28 03:43:10;;;;;;;;;;;26.10;68.10;;;;;;4987534;28;20068;-83
2022/06/28 03:45:36;;;;;;;;;;;26.20;68.00;;;;;;4985124;28;20527;-81
2022/06/28 03:48:25;;;;;;;;;;;26.20;68.10;;;;;;4973276;28;19934;-82
2022/06/28 03:51:17;;;;;;;;;;;26.40;68.00;;;;;;4960955;28;19973;-82
2022/06/28 03:54:03;;;;;;;;;;;26.60;67.50;;;;;;4933272;29;21324;-84
2022/06/28 03:56:35;;;;;;;;;;;26.80;67.20;;;;;;4888374;29;19927;-84
2022/06/28 03:59:01;;;;;;;;;;;26.80;66.80;;;;;;4929193;29;20009;-83
2022/06/28 04:01:27;;;;;;;;;;;26.70;66.60;;;;;;4880429;29;20021;-83
2022/06/28 04:03:53;;;;;;;;;;;26.60;66.90;;;;;;4897172;29;19922;-82
2022/06/28 04:06:19;;;;;;;;;;;26.60;66.80;;;;;;4928736;29;19923;-85
2022/06/28 04:08:46;;;;;;;;;;;26.60;66.80;;;;;;4928581;29;20468;-83
2022/06/28 04:11:15;;;;;;;;;;;26.50;67.30;;;;;;4917146;29;19922;-84
2022/06/28 04:13:44;;;;;;;;;;;26.60;67.30;;;;;;4939824;29;19923;-86
2022/06/28 04:16:10;;;;;;;;;;;26.80;67.10;;;;;;4923461;28;19918;-87
2022/06/28 04:18:36;;;;;;;;;;;26.80;66.50;;;;;;4932928;28;19989;-86
2022/06/28 04:21:21;;;;;;;;;;;26.90;66.70;;;;;;4931390;28;19945;-85
2022/06/28 04:23:55;;;;;;;;;;;27.00;66.60;;;;;;4942193;28;20059;-84
2022/06/28 04:26:21;;;;;;;;;;;27.30;66.50;;;;;;4940452;28;19963;-86
2022/06/28 04:28:47;;;;;;;;;;;27.40;66.10;;;;;;4934016;28;20022;-90
2022/06/28 04:31:22;;;;;;;;;;;27.40;66.00;;;;;;4942351;28;19917;-94
2022/06/28 04:33:48;;;;;;;;;;;27.30;65.50;;;;;;4973258;28;20015;-89
2022/06/28 04:36:17;;;;;;;;;;;27.20;65.90;;;;;;4946409;28;19925;-92
2022/06/28 04:38:46;;;;;;;;;;;27.10;65.80;;;;;;4973979;28;19922;-90
2022/06/28 04:41:15;;;;;;;;;;;27.00;66.00;;;;;;4980062;28;19928;-90
2022/06/28 04:43:56;;;;;;;;;;;27.00;66.00;;;;;;4958349;28;19929;-85
2022/06/28 04:46:29;;;;;;;;;;;27.20;66.30;;;;;;4973533;28;20449;-86
2022/06/28 04:48:57;;;;;;;;;;;27.30;66.10;;;;;;4968382;28;20025;-86
2022/06/28 04:51:43;;;;;;;;;;;27.50;65.50;;;;;;4958959;28;19922;-92
2022/06/28 04:54:12;;;;;;;;;;;27.80;65.50;;;;;;4994919;28;19922;-89
2022/06/28 04:57:11;;;;;;;;;;;27.80;63.70;;;;;;4991144;28;19922;-93
2022/06/28 04:59:38;;;;;;;;;;;28.00;64.80;;;;;;4997521;28;19933;-91
2022/06/28 05:02:11;;;;;;;;;;;28.10;63.60;;;;;;4997178;28;19977;-90
2022/06/28 05:04:37;;;;;;;;;;;28.20;63.30;;;;;;4959677;28;19929;-92
2022/06/28 05:07:10;;;;;;;;;;;28.40;62.30;;;;;;4980915;28;19989;-90
2022/06/28 05:09:36;;;;;;;;;;;28.60;61.90;;;;;;4970207;28;19968;-78
2022/06/28 05:12:04;;;;;;;;;;;28.80;61.10;;;;;;4953950;28;19926;-77
2022/06/28 05:14:34;;;;;;;;;;;28.90;59.20;;;;;;4992005;28;20433;-79
2022/06/28 05:17:01;;;;;;;;;;;28.90;59.60;;;;;;4971318;28;19925;-80
2022/06/28 05:19:26;;;;;;;;;;;28.80;59.70;;;;;;4975542;28;19925;-80
2022/06/28 05:21:52;;;;;;;;;;;28.60;60.30;;;;;;4978266;28;19922;-84
2022/06/28 05:24:19;;;;;;;;;;;28.40;60.60;;;;;;4973602;28;20022;-84
2022/06/28 05:26:52;;;;;;;;;;;28.30;60.40;;;;;;4975165;28;19926;-82
2022/06/28 05:29:20;;;;;;;;;;;28.20;61.00;;;;;;4983851;28;20388;-81
2022/06/28 05:31:46;;;;;;;;;;;28.30;61.20;;;;;;4981650;28;19925;-82
2022/06/28 05:34:13;;;;;;;;;;;28.40;61.40;;;;;;4966550;28;19922;-81
2022/06/28 05:36:39;;;;;;;;;;;28.50;60.70;;;;;;4983716;28;19975;-81
2022/06/28 05:39:06;;;;;;;;;;;28.40;60.80;;;;;;4981407;28;19922;-80
2022/06/28 05:41:32;;;;;;;;;;;28.30;60.90;;;;;;4967186;28;19922;-80
2022/06/28 05:43:59;;;;;;;;;;;28.30;61.60;;;;;;4964772;28;20023;-81
2022/06/28 05:46:25;;;;;;;;;;;28.50;61.40;;;;;;4983249;28;20026;-80
2022/06/28 05:48:52;;;;;;;;;;;28.70;60.50;;;;;;4951347;28;19933;-80
2022/06/28 05:51:17;;;;;;;;;;;28.80;57.80;;;;;;4965593;28;20340;-81
2022/06/28 05:53:43;;;;;;;;;;;29.00;57.50;;;;;;4968842;28;19937;-83
2022/06/28 05:56:09;;;;;;;;;;;29.30;57.20;;;;;;4971246;28;20051;-87
2022/06/28 05:58:35;;;;;;;;;;;29.50;56.20;;;;;;4965561;28;20009;-86
2022/06/28 06:01:01;;;;;;;;;;;29.70;55.70;;;;;;4954826;28;19937;-85
2022/06/28 06:03:27;;;;;;;;;;;29.90;54.20;;;;;;4963629;28;20511;-87
2022/06/28 06:05:53;;;;;;;;;;;30.00;53.60;;;;;;4970482;28;19984;-84
2022/06/28 06:08:19;;;;;;;;;;;30.10;53.60;;;;;;4964959;28;19928;-86
2022/06/28 06:10:47;;;;;;;;;;;30.20;54.30;;;;;;4953218;28;20415;-85
2022/06/28 06:13:13;;;;;;;;;;;30.30;53.80;;;;;;4969976;28;19915;-88
2022/06/28 06:15:39;;;;;;;;;;;30.30;54.90;;;;;;4955211;28;19930;-86
2022/06/28 06:18:05;;;;;;;;;;;30.40;54.40;;;;;;4966379;28;19926;-83
2022/06/28 06:20:31;;;;;;;;;;;30.50;54.50;;;;;;4983627;28;19921;-87
2022/06/28 06:22:58;;;;;;;;;;;30.40;53.50;;;;;;4981178;28;19922;-88
2022/06/28 06:25:42;;;;;;;;;;;30.50;52.70;;;;;;4956343;28;19965;-87
2022/06/28 06:28:08;;;;;;;;;;;30.50;51.90;;;;;;4964973;28;19941;-87
2022/06/28 06:30:36;;;;;;;;;;;30.50;51.50;;;;;;4984657;28;20568;-90
2022/06/28 06:33:12;;;;;;;;;;;30.40;50.90;;;;;;4951633;28;19923;-88
2022/06/28 06:35:57;;;;;;;;;;;30.40;50.80;;;;;;4966017;28;19981;-89
2022/06/28 06:38:23;;;;;;;;;;;30.40;51.30;;;;;;4965454;28;19926;-85
2022/06/28 06:40:49;;;;;;;;;;;30.40;51.10;;;;;;4969895;28;19918;-90
2022/06/28 06:43:16;;;;;;;;;;;30.40;51.10;;;;;;4953451;28;19933;-86
2022/06/28 06:45:42;;;;;;;;;;;30.30;50.90;;;;;;4964984;28;19926;-86
2022/06/28 06:48:08;;;;;;;;;;;30.30;51.00;;;;;;4966115;28;20381;-86
2022/06/28 06:50:35;;;;;;;;;;;30.40;50.40;;;;;;4953049;28;19927;-88
2022/06/28 06:53:02;;;;;;;;;;;30.40;49.40;;;;;;4965132;28;19929;-87
2022/06/28 06:55:32;;;;;;;;;;;30.40;48.30;;;;;;4963776;28;19925;-87
2022/06/28 06:57:58;;;;;;;;;;;30.30;48.10;;;;;;4982519;28;20008;-87
2022/06/28 07:00:24;;;;;;;;;;;30.30;48.60;;;;;;4968927;28;20369;-88
2022/06/28 07:02:50;;;;;;;;;;;30.30;48.90;;;;;;4965855;28;19926;-90
2022/06/28 07:05:18;;;;;;;;;;;30.30;49.40;;;;;;4966635;28;19930;-89
2022/06/28 07:07:44;;;;;;;;;;;30.20;47.60;;;;;;4979836;28;19922;-84
2022/06/28 07:10:11;;;;;;;;;;;30.20;47.70;;;;;;4984735;28;20459;-89
2022/06/28 07:12:38;;;;;;;;;;;30.10;47.90;;;;;;4957132;28;19976;-90
2022/06/28 07:15:04;;;;;;;;;;;30.10;47.90;;;;;;4971181;28;19973;-84
2022/06/28 07:17:36;;;;;;;;;;;30.10;47.30;;;;;;4939750;28;20022;-76
2022/06/28 07:20:02;;;;;;;;;;;30.10;47.70;;;;;;4966621;28;19947;-77
2022/06/28 07:22:28;;;;;;;;;;;30.00;46.30;;;;;;4985397;28;20021;-78
2022/06/28 07:24:59;;;;;;;;;;;30.00;47.20;;;;;;4967064;28;19938;-79
2022/06/28 07:27:26;;;;;;;;;;;30.00;47.50;;;;;;4965804;28;19930;-77
2022/06/28 07:29:52;;;;;;;;;;;29.90;47.30;;;;;;4967796;28;19922;-77
2022/06/28 07:32:19;;;;;;;;;;;29.80;46.90;;;;;;4953782;28;20051;-77
2022/06/28 07:34:45;;;;;;;;;;;29.90;46.60;;;;;;4952552;28;20258;-76
2022/06/28 07:37:11;;;;;;;;;;;29.80;46.00;;;;;;4971351;28;19918;-76
2022/06/28 07:39:43;;;;;;;;;;;29.80;46.60;;;;;;4983856;28;19922;-76
2022/06/28 07:42:31;;;;;;;;;;;29.70;46.00;;;;;;4963524;28;20012;-77
2022/06/28 07:45:16;;;;;;;;;;;29.70;45.80;;;;;;4961797;28;19926;-79
2022/06/28 07:47:42;;;;;;;;;;;29.60;45.50;;;;;;4934542;28;19922;-79
2022/06/28 07:52:52;;;;;;;;;;;29.40;45.60;;;;;;4950547;28;19995;-78
2022/06/28 07:55:23;;;;;;;;;;;29.40;45.70;;;;;;4961706;28;20353;-80
2022/06/28 07:58:16;;;;;;;;;;;29.40;45.50;;;;;;4959397;28;19932;-81
2022/06/28 08:00:43;;;;;;;;;;;29.30;45.60;;;;;;4947597;28;20336;-85
2022/06/28 08:03:15;;;;;;;;;;;29.30;45.10;;;;;;4934979;28;20431;-89
2022/06/28 08:05:42;;;;;;;;;;;29.20;44.90;;;;;;4945546;28;19930;-86
2022/06/28 08:08:08;;;;;;;;;;;29.20;45.10;;;;;;4944745;28;19926;-85
2022/06/28 08:10:35;;;;;;;;;;;29.20;45.20;;;;;;4947040;28;19922;-86
2022/06/28 08:13:04;;;;;;;;;;;29.10;45.10;;;;;;4934399;28;19965;-82
2022/06/28 08:15:31;;;;;;;;;;;29.10;45.50;;;;;;4961245;28;19957;-84
2022/06/28 08:17:59;;;;;;;;;;;29.10;45.40;;;;;;4963011;28;19922;-81
2022/06/28 08:20:25;;;;;;;;;;;29.00;45.20;;;;;;4952926;28;20507;-82
2022/06/28 08:22:51;;;;;;;;;;;29.00;45.80;;;;;;4951171;28;20006;-80
2022/06/28 08:25:17;;;;;;;;;;;28.90;45.60;;;;;;4984279;28;19925;-81
2022/06/28 08:27:43;;;;;;;;;;;28.80;45.60;;;;;;4967156;28;19950;-83
2022/06/28 08:30:09;;;;;;;;;;;28.70;45.50;;;;;;4983985;28;20325;-82
2022/06/28 08:32:35;;;;;;;;;;;28.70;46.00;;;;;;4964889;28;19958;-81
2022/06/28 08:35:01;;;;;;;;;;;28.60;45.50;;;;;;4987844;28;20435;-81
2022/06/28 08:37:27;;;;;;;;;;;28.60;45.60;;;;;;4968050;28;19949;-82
2022/06/28 08:39:53;;;;;;;;;;;28.60;45.90;;;;;;4969884;28;20008;-80
2022/06/28 08:42:24;;;;;;;;;;;28.50;45.60;;;;;;4969196;28;19921;-81
2022/06/28 08:44:51;;;;;;;;;;;28.40;45.00;;;;;;4967599;28;20419;-83
2022/06/28 08:47:18;;;;;;;;;;;28.30;44.80;;;;;;4973477;28;21121;-81
2022/06/28 08:49:49;;;;;;;;;;;28.30;44.90;;;;;;4969526;28;19980;-80
2022/06/28 08:52:16;;;;;;;;;;;28.20;44.80;;;;;;4973041;28;20420;-82
2022/06/28 08:54:42;;;;;;;;;;;28.10;45.00;;;;;;4990930;28;19926;-80
2022/06/28 08:57:08;;;;;;;;;;;28.00;44.60;;;;;;4987747;28;19925;-79
2022/06/28 08:59:36;;;;;;;;;;;28.00;45.20;;;;;;4987744;28;19929;-80
2022/06/28 09:02:05;;;;;;;;;;;28.00;45.70;;;;;;4970083;28;20263;-82
2022/06/28 09:04:31;;;;;;;;;;;27.90;45.50;;;;;;4985854;28;19926;-81
2022/06/28 09:06:57;;;;;;;;;;;27.90;45.40;;;;;;4986411;28;19926;-80
2022/06/28 09:09:23;;;;;;;;;;;27.90;44.90;;;;;;4985507;28;19992;-81
2022/06/28 09:11:50;;;;;;;;;;;27.80;44.50;;;;;;4986007;28;19951;-81
2022/06/28 09:14:26;;;;;;;;;;;27.80;44.20;;;;;;4970314;28;20337;-80
2022/06/28 09:16:52;;;;;;;;;;;27.70;44.80;;;;;;4985294;28;20009;-78
2022/06/28 09:19:31;;;;;;;;;;;27.70;44.90;;;;;;4987997;28;19913;-79
2022/06/28 09:21:57;;;;;;;;;;;27.60;44.90;;;;;;4986171;28;19925;-78
2022/06/28 09:24:25;;;;;;;;;;;27.60;45.10;;;;;;4972795;28;19933;-78
2022/06/28 09:26:54;;;;;;;;;;;27.50;44.80;;;;;;4971102;28;19921;-78
2022/06/28 09:29:23;;;;;;;;;;;27.50;44.40;;;;;;4987678;28;19922;-78
2022/06/28 09:31:49;;;;;;;;;;;27.40;43.70;;;;;;4987914;28;19918;-78
2022/06/28 09:34:15;;;;;;;;;;;27.40;43.30;;;;;;4988053;28;20388;-78
2022/06/28 09:36:50;;;;;;;;;;;27.20;42.90;;;;;;4970975;28;20395;-77
2022/06/28 09:39:17;;;;;;;;;;;27.20;42.60;;;;;;4972785;28;19933;-77
2022/06/28 09:41:44;;;;;;;;;;;27.00;42.60;;;;;;4972340;28;19922;-77
2022/06/28 09:44:10;;;;;;;;;;;26.90;43.30;;;;;;4987031;28;19928;-77
2022/06/28 09:46:36;;;;;;;;;;;26.70;43.60;;;;;;4983826;28;19918;-76
2022/06/28 09:49:06;;;;;;;;;;;26.70;43.60;;;;;;4983925;28;19965;-78
2022/06/28 09:51:32;;;;;;;;;;;26.60;43.80;;;;;;4967967;28;20411;-78
2022/06/28 09:54:03;;;;;;;;;;;26.50;43.70;;;;;;4988355;28;19932;-78
2022/06/28 09:56:33;;;;;;;;;;;26.50;43.80;;;;;;4987253;28;19921;-79
2022/06/28 09:58:59;;;;;;;;;;;26.50;43.50;;;;;;4984034;28;19925;-79
2022/06/28 10:01:25;;;;;;;;;;;26.50;44.40;;;;;;4987059;28;20068;-78
2022/06/28 10:03:52;;;;;;;;;;;26.50;45.70;;;;;;4967946;28;20348;-78
2022/06/28 10:06:18;;;;;;;;;;;26.50;45.80;;;;;;4985458;28;19987;-78
2022/06/28 10:08:45;;;;;;;;;;;26.50;45.50;;;;;;4974509;28;20202;-78
2022/06/28 10:11:11;;;;;;;;;;;26.40;45.40;;;;;;4986921;28;19922;-80
2022/06/28 10:16:24;;;;;;;;;;;26.40;46.60;;;;;;4986717;28;19914;-79
2022/06/28 10:18:51;;;;;;;;;;;26.40;47.00;;;;;;4986979;28;19922;-79
2022/06/28 10:21:36;;;;;;;;;;;26.40;47.60;;;;;;4988527;28;19976;-78
2022/06/28 10:24:02;;;;;;;;;;;26.40;46.70;;;;;;4987348;28;20020;-79
2022/06/28 10:26:28;;;;;;;;;;;26.50;48.10;;;;;;4988117;28;20957;-82
2022/06/28 10:29:04;;;;;;;;;;;26.50;46.30;;;;;;4986975;28;19929;-85
2022/06/28 10:31:40;;;;;;;;;;;26.50;46.20;;;;;;4986145;28;20258;-84
2022/06/28 10:34:12;;;;;;;;;;;26.60;45.90;;;;;;4989092;28;20016;-85
2022/06/28 10:36:43;;;;;;;;;;;26.60;45.50;;;;;;4985727;28;19932;-83
2022/06/28 10:39:09;;;;;;;;;;;26.60;45.40;;;;;;4983706;28;19942;-81
2022/06/28 10:41:43;;;;;;;;;;;26.50;44.90;;;;;;4966235;28;19961;-81
2022/06/28 10:44:09;;;;;;;;;;;26.50;44.70;;;;;;4986128;28;19926;-81
2022/06/28 10:46:35;;;;;;;;;;;26.50;45.20;;;;;;4988106;28;19977;-80
2022/06/28 10:49:05;;;;;;;;;;;26.50;45.10;;;;;;4987522;28;19922;-81
2022/06/28 10:51:31;;;;;;;;;;;26.50;45.70;;;;;;4985406;28;20280;-83
2022/06/28 10:54:06;;;;;;;;;;;26.50;44.00;;;;;;4984669;28;19956;-79
2022/06/28 10:56:34;;;;;;;;;;;26.50;44.00;;;;;;4985978;28;20284;-83
2022/06/28 10:59:05;;;;;;;;;;;26.50;44.30;;;;;;4971825;28;19973;-81
2022/06/28 11:01:40;;;;;;;;;;;26.50;42.70;;;;;;4968476;28;19941;-80
2022/06/28 11:04:18;;;;;;;;;;;26.50;43.00;;;;;;4968895;28;19932;-81
2022/06/28 11:07:07;;;;;;;;;;;26.50;43.90;;;;;;4986038;28;20018;-81
2022/06/28 11:09:47;;;;;;;;;;;26.50;44.60;;;;;;4964860;28;19921;-80
2022/06/28 11:12:22;;;;;;;;;;;26.60;43.50;;;;;;4972511;28;20332;-81
2022/06/28 11:14:49;;;;;;;;;;;26.70;42.70;;;;;;4989617;28;20381;-79
2022/06/28 11:17:19;;;;;;;;;;;26.60;41.20;;;;;;4986916;28;19926;-85
2022/06/28 11:20:00;;;;;;;;;;;26.70;41.40;;;;;;4989554;28;19922;-86
2022/06/28 11:22:28;;;;;;;;;;;26.70;41.20;;;;;;4974441;28;20093;-80
2022/06/28 11:24:55;;;;;;;;;;;26.60;40.40;;;;;;4975486;28;19926;-80
2022/06/28 11:27:21;;;;;;;;;;;26.60;40.90;;;;;;4992104;28;19925;-77
2022/06/28 11:29:48;;;;;;;;;;;26.60;41.70;;;;;;4989886;28;20286;-77
2022/06/28 11:32:15;;;;;;;;;;;26.60;42.30;;;;;;4976147;28;19929;-77
2022/06/28 11:34:41;;;;;;;;;;;26.60;42.40;;;;;;4988804;28;19937;-81
2022/06/28 11:37:08;;;;;;;;;;;26.70;43.10;;;;;;4991702;28;19953;-80
2022/06/28 11:39:34;;;;;;;;;;;26.70;42.60;;;;;;4988177;28;20016;-78
2022/06/28 11:41:59;;;;;;;;;;;26.70;43.60;;;;;;4991107;28;20012;-83
2022/06/28 11:44:25;;;;;;;;;;;26.60;41.30;;;;;;4959619;28;19941;-79
2022/06/28 11:46:52;;;;;;;;;;;26.60;41.20;;;;;;4970637;28;19983;-80
2022/06/28 11:49:27;;;;;;;;;;;26.60;40.00;;;;;;4971034;28;20331;-80
2022/06/28 11:51:53;;;;;;;;;;;26.50;39.70;;;;;;4976647;28;20451;-79
2022/06/28 11:54:20;;;;;;;;;;;26.60;42.30;;;;;;4988151;28;19921;-82
2022/06/28 11:56:46;;;;;;;;;;;26.50;39.80;;;;;;4936301;28;19932;-81
2022/06/28 11:59:13;;;;;;;;;;;26.50;40.90;;;;;;4987132;28;19921;-81
2022/06/28 12:01:39;;;;;;;;;;;26.50;40.80;;;;;;4986300;28;19971;-79
2022/06/28 12:04:09;;;;;;;;;;;26.50;40.50;;;;;;4986920;28;19921;-81
2022/06/28 12:06:38;;;;;;;;;;;26.50;39.60;;;;;;4987819;28;19989;-81
2022/06/28 12:09:05;;;;;;;;;;;26.50;39.10;;;;;;4975095;28;19998;-81
2022/06/28 12:11:32;;;;;;;;;;;26.50;39.30;;;;;;4953849;28;19922;-81
2022/06/28 12:14:14;;;;;;;;;;;26.50;38.80;;;;;;4989119;28;19926;-80
2022/06/28 12:16:40;;;;;;;;;;;26.40;39.20;;;;;;4989593;28;19922;-79
2022/06/28 12:19:07;;;;;;;;;;;26.40;38.30;;;;;;4969480;28;20017;-81
2022/06/28 12:21:36;;;;;;;;;;;26.40;38.60;;;;;;4961171;28;19930;-82
2022/06/28 12:24:02;;;;;;;;;;;26.40;39.40;;;;;;4990262;28;19922;-82
2022/06/28 12:26:38;;;;;;;;;;;26.40;39.50;;;;;;4970561;28;20282;-83
2022/06/28 12:29:04;;;;;;;;;;;26.40;39.90;;;;;;4989353;28;19940;-84
2022/06/28 12:31:30;;;;;;;;;;;26.40;40.10;;;;;;4971837;28;19917;-83
2022/06/28 12:33:56;;;;;;;;;;;26.40;40.50;;;;;;4970835;28;20400;-80
2022/06/28 12:36:21;;;;;;;;;;;26.30;40.40;;;;;;4988957;28;19921;-83
2022/06/28 12:38:47;;;;;;;;;;;26.30;40.50;;;;;;4987612;28;19922;-83
2022/06/28 12:41:13;;;;;;;;;;;26.30;40.50;;;;;;4975804;28;20434;-82
2022/06/28 12:43:39;;;;;;;;;;;26.30;40.30;;;;;;4984012;28;19917;-81
2022/06/28 12:46:05;;;;;;;;;;;26.40;40.70;;;;;;4975313;28;19926;-79
2022/06/28 12:48:32;;;;;;;;;;;26.30;40.10;;;;;;4991706;28;20012;-80
2022/06/28 12:50:58;;;;;;;;;;;26.40;40.50;;;;;;4984039;28;19968;-81
2022/06/28 12:53:24;;;;;;;;;;;26.30;39.80;;;;;;4988853;28;19922;-82
2022/06/28 12:55:50;;;;;;;;;;;26.30;40.30;;;;;;4971358;28;20297;-79
2022/06/28 12:58:16;;;;;;;;;;;26.30;41.20;;;;;;4987763;28;19964;-80
2022/06/28 13:00:42;;;;;;;;;;;26.30;40.40;;;;;;4972205;28;19961;-79
2022/06/28 13:03:08;;;;;;;;;;;26.30;39.80;;;;;;4969370;28;19929;-86
2022/06/28 13:05:33;;;;;;;;;;;26.20;39.90;;;;;;4988326;28;19934;-87
2022/06/28 13:08:01;;;;;;;;;;;26.20;40.10;;;;;;4970500;28;19976;-85
2022/06/28 13:10:27;;;;;;;;;;;26.20;40.30;;;;;;4971177;28;19925;-81
2022/06/28 13:12:53;;;;;;;;;;;26.20;40.30;;;;;;4987141;28;19922;-82
2022/06/28 13:15:19;;;;;;;;;;;26.10;40.30;;;;;;4969181;28;19968;-82
2022/06/28 13:17:44;;;;;;;;;;;26.10;39.80;;;;;;4970624;28;19922;-81
2022/06/28 13:20:13;;;;;;;;;;;26.00;39.40;;;;;;4987858;28;19960;-82
2022/06/28 13:22:39;;;;;;;;;;;26.10;39.70;;;;;;4979301;28;19980;-81
2022/06/28 13:25:05;;;;;;;;;;;26.10;39.60;;;;;;4994774;28;20321;-81
2022/06/28 13:27:31;;;;;;;;;;;26.00;39.20;;;;;;4978238;28;19921;-82
2022/06/28 13:29:57;;;;;;;;;;;26.10;39.60;;;;;;4992589;28;19973;-81
2022/06/28 13:32:23;;;;;;;;;;;26.10;39.30;;;;;;4996457;28;20016;-83
2022/06/28 13:34:49;;;;;;;;;;;26.00;39.70;;;;;;4962734;28;20663;-81
2022/06/28 13:37:15;;;;;;;;;;;26.00;40.20;;;;;;4971450;28;19925;-82
2022/06/28 13:39:41;;;;;;;;;;;26.10;41.20;;;;;;4973015;28;19998;-80
2022/06/28 13:42:08;;;;;;;;;;;26.10;40.40;;;;;;4971751;28;19922;-80
2022/06/28 13:44:34;;;;;;;;;;;26.10;39.70;;;;;;4988161;28;19929;-80
2022/06/28 13:47:00;;;;;;;;;;;26.10;38.80;;;;;;4988280;28;19921;-81
2022/06/28 13:49:25;;;;;;;;;;;26.10;38.80;;;;;;4990552;28;19930;-80
2022/06/28 13:51:51;;;;;;;;;;;26.00;38.70;;;;;;4991472;28;19921;-80
2022/06/28 13:54:17;;;;;;;;;;;26.00;39.80;;;;;;4970845;28;19937;-83
2022/06/28 13:56:43;;;;;;;;;;;26.00;38.70;;;;;;4987161;28;19922;-84
2022/06/28 13:59:09;;;;;;;;;;;26.00;38.90;;;;;;4992003;28;19922;-86
2022/06/28 14:01:35;;;;;;;;;;;26.00;40.00;;;;;;4974691;28;20355;-86
2022/06/28 14:04:01;;;;;;;;;;;26.10;40.00;;;;;;5007630;28;20068;-80
2022/06/28 14:06:27;;;;;;;;;;;26.10;40.10;;;;;;5006788;28;19917;-82
2022/06/28 14:08:53;;;;;;;;;;;26.00;39.80;;;;;;5005136;28;19922;-89
2022/06/28 14:11:18;;;;;;;;;;;26.00;39.60;;;;;;5019424;28;19909;-85
2022/06/28 14:13:44;;;;;;;;;;;26.00;38.70;;;;;;4998031;28;19922;-81
2022/06/28 14:16:10;;;;;;;;;;;26.00;38.90;;;;;;4995640;28;20297;-87
2022/06/28 14:18:36;;;;;;;;;;;26.00;39.20;;;;;;5011124;28;19923;-89
2022/06/28 14:21:02;;;;;;;;;;;26.00;38.90;;;;;;5020879;28;19933;-91
2022/06/28 14:23:28;;;;;;;;;;;26.00;39.00;;;;;;5014857;28;19909;-91
2022/06/28 14:25:54;;;;;;;;;;;25.90;38.70;;;;;;5017705;28;19914;-86
2022/06/28 14:28:19;;;;;;;;;;;25.90;38.90;;;;;;5003078;28;19921;-91
2022/06/28 14:30:46;;;;;;;;;;;26.00;39.50;;;;;;5017989;28;19924;-92
2022/06/28 14:33:13;;;;;;;;;;;25.90;38.70;;;;;;4996862;28;19935;-88
2022/06/28 14:35:39;;;;;;;;;;;25.90;38.90;;;;;;4996722;28;19933;-89